< < Back
Terminal Aerodrome Forecast


Current Version              Previous Versions:   1  2  3  4  5  6  7  8  9  

Terminal Aerodrome Forecast

716
FTUS42 KCAE 121729
TAFCAE
TAF
KCAE 121729Z 1218/1318 35005KT P6SM SCT050 BKN100
     FM130200 27009KT P6SM SKC
     FM131400 35010KT P6SM FEW250=

Latest METAR

891
SAUS80 KWBC 130400 RRA
MTRCAE
METAR KCAE 130356Z 02003KT 10SM CLR 03/M01 A3007 RMK AO2 SLP183
T00331006


USA.gov is the U.S. government's official web portal to all federal, state and local government web resources and services.